Time,TemperatureF,DewpointF,PressureIn,WindDirection,WindDirectionDegrees,WindSpeedMPH,WindSpeedGustMPH,Humidity,HourlyPrecipIn,Conditions,Clouds,dailyrainin,SoftwareType,DateUTC
2013-02-25 00:05:00,33.9,31.0,29.99,NW,320,0.0,6.0,89,0.00,,,0.00,Wunderground v.1.15,2013-02-25 05:05:00,
2013-02-25 00:09:00,33.8,30.9,29.99,NW,320,0.0,0.0,89,0.00,,,0.00,Wunderground v.1.15,2013-02-25 05:09:00,
2013-02-25 00:14:00,33.8,30.9,29.99,NW,320,0.0,0.0,89,0.00,,,0.00,Wunderground v.1.15,2013-02-25 05:14:00,
2013-02-25 00:19:00,33.6,30.4,29.99,NW,320,0.0,0.0,88,0.00,,,0.00,Wunderground v.1.15,2013-02-25 05:19:00,
2013-02-25 00:24:00,33.5,30.0,29.99,NW,320,0.0,0.0,87,0.00,,,0.00,Wunderground v.1.15,2013-02-25 05:24:00,
2013-02-25 00:29:00,33.3,30.1,29.99,NW,320,0.0,0.0,88,0.00,,,0.00,Wunderground v.1.15,2013-02-25 05:29:00,
2013-02-25 00:34:00,33.1,29.9,29.99,NW,320,0.0,0.0,88,0.00,,,0.00,Wunderground v.1.15,2013-02-25 05:34:00,
2013-02-25 00:39:00,32.9,29.7,29.99,NW,321,0.0,0.0,88,0.00,,,0.00,Wunderground v.1.15,2013-02-25 05:39:00,
2013-02-25 00:44:00,32.7,29.5,29.99,NW,321,0.0,0.0,88,0.00,,,0.00,Wunderground v.1.15,2013-02-25 05:44:00,
2013-02-25 00:49:00,32.6,29.7,30.00,NW,321,0.0,0.0,89,0.00,,,0.00,Wunderground v.1.15,2013-02-25 05:49:00,
2013-02-25 00:59:00,32.4,29.5,30.00,NW,321,0.0,0.0,89,0.00,,,0.00,Wunderground v.1.15,2013-02-25 05:59:00,
2013-02-25 01:04:00,32.3,29.7,30.00,NW,321,0.0,0.0,90,0.00,,,0.00,Wunderground v.1.15,2013-02-25 06:04:00,
2013-02-25 01:09:00,32.2,29.6,30.00,NW,321,0.0,0.0,90,0.00,,,0.00,Wunderground v.1.15,2013-02-25 06:09:00,
2013-02-25 01:14:00,32.2,29.6,30.01,NW,321,0.0,0.0,90,0.00,,,0.00,Wunderground v.1.15,2013-02-25 06:14:00,
2013-02-25 01:24:00,32.2,29.9,30.01,NW,326,0.0,0.0,91,0.00,,,0.00,Wunderground v.1.15,2013-02-25 06:24:00,
2013-02-25 01:29:00,32.1,29.8,30.01,NNW,337,0.0,0.0,91,0.00,,,0.00,Wunderground v.1.15,2013-02-25 06:29:00,
2013-02-25 01:34:00,32.1,29.8,30.02,NNW,345,0.0,0.0,91,0.00,,,0.00,Wunderground v.1.15,2013-02-25 06:34:00,
2013-02-25 01:39:00,32.1,29.8,30.02,NNW,345,1.0,1.0,91,0.00,,,0.00,Wunderground v.1.15,2013-02-25 06:39:00,
2013-02-25 01:44:00,32.1,29.5,30.02,NNW,345,1.0,2.0,90,0.00,,,0.00,Wunderground v.1.15,2013-02-25 06:44:00,
2013-02-25 01:54:00,32.5,29.6,30.02,NNW,345,1.0,2.0,89,0.00,,,0.00,Wunderground v.1.15,2013-02-25 06:54:00,
2013-02-25 01:59:00,32.8,29.4,30.02,NNW,345,1.0,1.0,87,0.00,,,0.00,Wunderground v.1.15,2013-02-25 06:59:00,
2013-02-25 02:04:00,33.2,29.5,30.02,NNW,345,1.0,1.0,86,0.00,,,0.00,Wunderground v.1.15,2013-02-25 07:04:00,
2013-02-25 02:09:00,33.6,29.0,30.02,NNW,345,0.0,0.0,83,0.00,,,0.00,Wunderground v.1.15,2013-02-25 07:09:00,
2013-02-25 02:14:00,33.9,29.0,30.03,NNW,345,1.0,1.0,82,0.00,,,0.00,Wunderground v.1.15,2013-02-25 07:14:00,
2013-02-25 02:24:00,34.2,28.7,30.03,NNW,345,1.0,3.0,80,0.00,,,0.00,Wunderground v.1.15,2013-02-25 07:24:00,
2013-02-25 02:29:00,34.5,29.0,30.03,NNW,346,1.0,2.0,80,0.00,,,0.00,Wunderground v.1.15,2013-02-25 07:29:00,
2013-02-25 02:34:00,34.5,28.7,30.03,NNW,343,0.0,2.0,79,0.00,,,0.00,Wunderground v.1.15,2013-02-25 07:34:00,
2013-02-25 02:39:00,34.5,29.0,30.03,NNW,345,0.0,0.0,80,0.00,,,0.00,Wunderground v.1.15,2013-02-25 07:39:00,
2013-02-25 02:44:00,34.5,28.3,30.02,NNW,345,0.0,2.0,78,0.00,,,0.00,Wunderground v.1.15,2013-02-25 07:44:00,
2013-02-25 02:54:00,34.5,28.7,30.02,NNW,346,1.0,2.0,79,0.00,,,0.00,Wunderground v.1.15,2013-02-25 07:54:00,
2013-02-25 02:59:00,34.4,28.2,30.02,NNW,346,1.0,2.0,78,0.00,,,0.00,Wunderground v.1.15,2013-02-25 07:59:00,
2013-02-25 03:04:00,34.4,28.9,30.03,NNW,346,1.0,2.0,80,0.00,,,0.00,Wunderground v.1.15,2013-02-25 08:04:00,
2013-02-25 03:14:00,34.2,27.7,30.03,NNW,346,0.0,1.0,77,0.00,,,0.00,Wunderground v.1.15,2013-02-25 08:14:00,
2013-02-25 03:19:00,34.1,27.6,30.02,NNW,346,0.0,1.0,77,0.00,,,0.00,Wunderground v.1.15,2013-02-25 08:19:00,
2013-02-25 03:24:00,34.0,27.9,30.02,NNW,346,0.0,1.0,78,0.00,,,0.00,Wunderground v.1.15,2013-02-25 08:24:00,
2013-02-25 03:29:00,33.9,27.8,30.02,NNW,346,0.0,0.0,78,0.00,,,0.00,Wunderground v.1.15,2013-02-25 08:29:00,
2013-02-25 03:34:00,33.8,27.7,30.02,NNW,346,0.0,0.0,78,0.00,,,0.00,Wunderground v.1.15,2013-02-25 08:34:00,
2013-02-25 03:44:00,33.5,28.0,30.02,NNW,346,0.0,0.0,80,0.00,,,0.00,Wunderground v.1.15,2013-02-25 08:44:00,
2013-02-25 03:49:00,33.3,28.1,30.03,NNW,346,0.0,1.0,81,0.00,,,0.00,Wunderground v.1.15,2013-02-25 08:49:00,
2013-02-25 03:54:00,33.1,27.9,30.03,NNW,346,0.0,1.0,81,0.00,,,0.00,Wunderground v.1.15,2013-02-25 08:54:00,
2013-02-25 03:59:00,33.0,27.2,30.03,NNW,346,0.0,2.0,79,0.00,,,0.00,Wunderground v.1.15,2013-02-25 08:59:00,
2013-02-25 04:04:00,32.9,27.1,30.04,NNW,346,0.0,2.0,79,0.00,,,0.00,Wunderground v.1.15,2013-02-25 09:04:00,
2013-02-25 04:14:00,32.9,27.1,30.04,NNW,346,0.0,0.0,79,0.00,,,0.00,Wunderground v.1.15,2013-02-25 09:14:00,
2013-02-25 04:19:00,32.8,27.0,30.04,NNW,346,0.0,1.0,79,0.00,,,0.00,Wunderground v.1.15,2013-02-25 09:19:00,
2013-02-25 04:24:00,32.7,26.9,30.04,NNW,346,0.0,1.0,79,0.00,,,0.00,Wunderground v.1.15,2013-02-25 09:24:00,
2013-02-25 04:29:00,32.5,26.7,30.04,NNW,346,0.0,0.0,79,0.00,,,0.00,Wunderground v.1.15,2013-02-25 09:29:00,
2013-02-25 04:34:00,32.5,27.0,30.05,NNW,346,0.0,0.0,80,0.00,,,0.00,Wunderground v.1.15,2013-02-25 09:34:00,
2013-02-25 04:44:00,32.2,26.7,30.05,NNW,346,0.0,0.0,80,0.00,,,0.00,Wunderground v.1.15,2013-02-25 09:44:00,
2013-02-25 04:49:00,32.0,26.5,30.06,NNW,346,0.0,1.0,80,0.00,,,0.00,Wunderground v.1.15,2013-02-25 09:49:00,
2013-02-25 04:54:00,32.0,26.2,30.06,NNW,346,1.0,1.0,79,0.00,,,0.00,Wunderground v.1.15,2013-02-25 09:54:00,
2013-02-25 04:59:00,32.0,26.2,30.06,NNW,346,1.0,1.0,79,0.00,,,0.00,Wunderground v.1.15,2013-02-25 09:59:00,
2013-02-25 05:04:00,32.0,26.5,30.06,NNW,346,0.0,1.0,80,0.00,,,0.00,Wunderground v.1.15,2013-02-25 10:04:00,
2013-02-25 05:14:00,31.9,26.7,30.06,NNW,346,0.0,0.0,81,0.00,,,0.00,Wunderground v.1.15,2013-02-25 10:14:00,
2013-02-25 05:19:00,31.8,26.3,30.07,NNW,346,0.0,0.0,80,0.00,,,0.00,Wunderground v.1.15,2013-02-25 10:19:00,
2013-02-25 05:24:00,31.7,25.9,30.07,NNW,346,0.0,1.0,79,0.00,,,0.00,Wunderground v.1.15,2013-02-25 10:24:00,
2013-02-25 05:34:00,31.6,27.0,30.08,NNW,346,0.0,0.0,83,0.00,,,0.00,Wunderground v.1.15,2013-02-25 10:34:00,
2013-02-25 05:39:00,31.6,26.7,30.08,NNW,346,0.0,0.0,82,0.00,,,0.00,Wunderground v.1.15,2013-02-25 10:39:00,
2013-02-25 05:44:00,31.5,26.3,30.08,NNW,346,0.0,0.0,81,0.00,,,0.00,Wunderground v.1.15,2013-02-25 10:44:00,
2013-02-25 05:49:00,31.3,26.1,30.09,NNW,346,0.0,1.0,81,0.00,,,0.00,Wunderground v.1.15,2013-02-25 10:49:00,
2013-02-25 05:59:00,31.2,26.3,30.09,NNW,346,0.0,1.0,82,0.00,,,0.00,Wunderground v.1.15,2013-02-25 10:59:00,
2013-02-25 06:04:00,31.1,26.0,30.09,NNW,346,0.0,1.0,81,0.00,,,0.00,Wunderground v.1.15,2013-02-25 11:04:00,
2013-02-25 06:09:00,31.1,26.2,30.09,NNW,346,0.0,0.0,82,0.00,,,0.00,Wunderground v.1.15,2013-02-25 11:09:00,
2013-02-25 06:14:00,31.0,25.9,30.09,NNW,346,0.0,0.0,81,0.00,,,0.00,Wunderground v.1.15,2013-02-25 11:14:00,
2013-02-25 06:19:00,31.0,25.9,30.10,NNW,346,0.0,0.0,81,0.00,,,0.00,Wunderground v.1.15,2013-02-25 11:19:00,
2013-02-25 06:29:00,30.9,25.8,30.10,NNW,346,0.0,0.0,81,0.00,,,0.00,Wunderground v.1.15,2013-02-25 11:29:00,
2013-02-25 06:34:00,30.9,25.8,30.11,NNW,346,0.0,0.0,81,0.00,,,0.00,Wunderground v.1.15,2013-02-25 11:34:00,
2013-02-25 06:39:00,30.9,25.5,30.11,NNW,346,0.0,0.0,80,0.00,,,0.00,Wunderground v.1.15,2013-02-25 11:39:00,
2013-02-25 06:44:00,30.9,25.5,30.11,NNW,346,0.0,0.0,80,0.00,,,0.00,Wunderground v.1.15,2013-02-25 11:44:00,
2013-02-25 06:49:00,30.9,25.5,30.11,NNW,346,0.0,0.0,80,0.00,,,0.00,Wunderground v.1.15,2013-02-25 11:49:00,
2013-02-25 06:59:00,30.9,25.5,30.11,NNW,346,0.0,0.0,80,0.00,,,0.00,Wunderground v.1.15,2013-02-25 11:59:00,
2013-02-25 07:04:00,30.8,25.4,30.10,NNW,346,0.0,0.0,80,0.00,,,0.00,Wunderground v.1.15,2013-02-25 12:04:00,
2013-02-25 07:09:00,30.9,25.5,30.10,NNW,337,0.0,0.0,80,0.00,,,0.00,Wunderground v.1.15,2013-02-25 12:09:00,
2013-02-25 07:14:00,30.8,25.1,30.11,NNW,346,0.0,0.0,79,0.00,,,0.00,Wunderground v.1.15,2013-02-25 12:14:00,
2013-02-25 07:24:00,30.9,25.2,30.11,NNW,346,0.0,1.0,79,0.00,,,0.00,Wunderground v.1.15,2013-02-25 12:24:00,
2013-02-25 07:29:00,30.9,25.2,30.11,NNW,346,1.0,1.0,79,0.00,,,0.00,Wunderground v.1.15,2013-02-25 12:29:00,
2013-02-25 07:34:00,31.0,25.2,30.12,NNW,346,0.0,1.0,79,0.00,,,0.00,Wunderground v.1.15,2013-02-25 12:34:00,
2013-02-25 07:39:00,31.1,25.0,30.12,NNW,346,0.0,0.0,78,0.00,,,0.00,Wunderground v.1.15,2013-02-25 12:39:00,
2013-02-25 07:44:00,31.2,25.7,30.11,NNW,346,0.0,0.0,80,0.00,,,0.00,Wunderground v.1.15,2013-02-25 12:44:00,
2013-02-25 07:54:00,31.4,25.0,30.11,NNW,346,0.0,0.0,77,0.00,,,0.00,Wunderground v.1.15,2013-02-25 12:54:00,
2013-02-25 08:04:00,31.7,25.0,30.13,NNW,346,0.0,0.0,76,0.00,,,0.00,Wunderground v.1.15,2013-02-25 13:04:00,
2013-02-25 08:09:00,31.8,24.8,30.13,NNW,346,0.0,1.0,75,0.00,,,0.00,Wunderground v.1.15,2013-02-25 13:09:00,
2013-02-25 08:14:00,32.0,24.0,30.13,NNW,346,0.0,1.0,72,0.00,,,0.00,Wunderground v.1.15,2013-02-25 13:14:00,
2013-02-25 08:24:00,32.3,23.9,30.15,NNW,346,0.0,1.0,71,0.00,,,0.00,Wunderground v.1.15,2013-02-25 13:24:00,
2013-02-25 08:29:00,32.5,24.5,30.15,NNW,346,0.0,1.0,72,0.00,,,0.00,Wunderground v.1.15,2013-02-25 13:29:00,
2013-02-25 08:35:00,32.7,24.7,30.15,SSW,193,0.0,1.0,72,0.00,,,0.00,Wunderground v.1.15,2013-02-25 13:35:00,
2013-02-25 08:44:00,33.2,24.1,30.15,NNW,346,1.0,1.0,69,0.00,,,0.00,Wunderground v.1.15,2013-02-25 13:44:00,
2013-02-25 08:49:00,33.4,24.7,30.15,NNW,346,1.0,2.0,70,0.00,,,0.00,Wunderground v.1.15,2013-02-25 13:49:00,
2013-02-25 08:54:00,33.6,24.2,30.15,NNW,346,1.0,3.0,68,0.00,,,0.00,Wunderground v.1.15,2013-02-25 13:54:00,
2013-02-25 08:59:00,33.7,24.3,30.15,NNW,346,1.0,1.0,68,0.00,,,0.00,Wunderground v.1.15,2013-02-25 13:59:00,
2013-02-25 09:09:00,34.1,23.6,30.15,NNW,346,2.0,2.0,65,0.00,,,0.00,Wunderground v.1.15,2013-02-25 14:09:00,
2013-02-25 09:14:00,34.2,23.7,30.15,NNW,347,2.0,2.0,65,0.00,,,0.00,Wunderground v.1.15,2013-02-25 14:14:00,
2013-02-25 09:19:00,34.4,23.8,30.16,NNW,347,2.0,2.0,65,0.00,,,0.00,Wunderground v.1.15,2013-02-25 14:19:00,
2013-02-25 09:24:00,34.6,23.7,30.16,NNW,347,2.0,3.0,64,0.00,,,0.00,Wunderground v.1.15,2013-02-25 14:24:00,
2013-02-25 09:29:00,34.8,24.2,30.17,NNW,347,1.0,1.0,65,0.00,,,0.00,Wunderground v.1.15,2013-02-25 14:29:00,
2013-02-25 09:39:00,35.3,24.3,30.17,NNW,347,1.0,1.0,64,0.00,,,0.00,Wunderground v.1.15,2013-02-25 14:39:00,
2013-02-25 09:44:00,35.5,24.5,30.17,NNW,347,1.0,1.0,64,0.00,,,0.00,Wunderground v.1.15,2013-02-25 14:44:00,
2013-02-25 09:49:00,35.8,24.0,30.17,NNW,347,2.0,2.0,62,0.00,,,0.00,Wunderground v.1.15,2013-02-25 14:49:00,
2013-02-25 09:54:00,36.0,23.4,30.17,NNW,347,2.0,3.0,60,0.00,,,0.00,Wunderground v.1.15,2013-02-25 14:54:00,
2013-02-25 10:04:00,36.4,23.8,30.18,NNW,347,2.0,2.0,60,0.00,,,0.00,Wunderground v.1.15,2013-02-25 15:04:00,
2013-02-25 10:09:00,36.6,24.0,30.18,NNW,347,2.0,2.0,60,0.00,,,0.00,Wunderground v.1.15,2013-02-25 15:09:00,
2013-02-25 10:14:00,36.7,23.7,30.18,East,93,2.0,3.0,59,0.00,,,0.00,Wunderground v.1.15,2013-02-25 15:14:00,
2013-02-25 10:19:00,36.7,23.7,30.18,ENE,59,2.0,2.0,59,0.00,,,0.00,Wunderground v.1.15,2013-02-25 15:19:00,
2013-02-25 10:29:00,37.1,24.5,30.18,SSE,161,1.0,1.0,60,0.00,,,0.00,Wunderground v.1.15,2013-02-25 15:29:00,
2013-02-25 10:34:00,37.2,24.2,30.18,North,359,1.0,1.0,59,0.00,,,0.00,Wunderground v.1.15,2013-02-25 15:34:00,
2013-02-25 10:39:00,37.3,24.3,30.18,North,1,1.0,1.0,59,0.00,,,0.00,Wunderground v.1.15,2013-02-25 15:39:00,
2013-02-25 10:44:00,37.5,24.5,30.18,North,359,1.0,1.0,59,0.00,,,0.00,Wunderground v.1.15,2013-02-25 15:44:00,
2013-02-25 10:49:00,37.8,24.3,30.17,NNE,17,1.0,1.0,58,0.00,,,0.00,Wunderground v.1.15,2013-02-25 15:49:00,
2013-02-25 10:59:00,38.1,23.8,30.17,East,91,1.0,2.0,56,0.00,,,0.00,Wunderground v.1.15,2013-02-25 15:59:00,
2013-02-25 11:04:00,38.3,24.4,30.16,NNW,347,1.0,3.0,57,0.00,,,0.00,Wunderground v.1.15,2013-02-25 16:04:00,
2013-02-25 11:09:00,38.4,24.5,30.16,NNW,347,1.0,1.0,57,0.00,,,0.00,Wunderground v.1.15,2013-02-25 16:09:00,
2013-02-25 11:14:00,38.7,24.8,30.16,NNW,347,1.0,3.0,57,0.00,,,0.00,Wunderground v.1.15,2013-02-25 16:14:00,
2013-02-25 11:19:00,38.6,23.8,30.16,NNW,347,1.0,1.0,55,0.00,,,0.00,Wunderground v.1.15,2013-02-25 16:19:00,
2013-02-25 11:29:00,39.0,25.0,30.16,East,83,1.0,1.0,57,0.00,,,0.00,Wunderground v.1.15,2013-02-25 16:29:00,
2013-02-25 11:34:00,39.1,24.3,30.16,NNW,346,1.0,2.0,55,0.00,,,0.00,Wunderground v.1.15,2013-02-25 16:34:00,
2013-02-25 11:39:00,39.2,24.4,30.16,NNW,347,2.0,2.0,55,0.00,,,0.00,Wunderground v.1.15,2013-02-25 16:39:00,
2013-02-25 11:44:00,39.2,23.5,30.16,NNW,347,2.0,2.0,53,0.00,,,0.00,Wunderground v.1.15,2013-02-25 16:44:00,
2013-02-25 11:54:00,39.6,24.3,30.15,NNW,347,1.0,1.0,54,0.00,,,0.00,Wunderground v.1.15,2013-02-25 16:54:00,
2013-02-25 11:59:00,39.9,25.0,30.15,NNW,346,1.0,1.0,55,0.00,,,0.00,Wunderground v.1.15,2013-02-25 16:59:00,
2013-02-25 12:05:00,40.0,24.2,30.15,NNW,346,1.0,1.0,53,0.00,,,0.00,Wunderground v.1.15,2013-02-25 17:05:00,
2013-02-25 12:14:00,40.2,24.4,30.15,NNW,347,1.0,2.0,53,0.00,,,0.00,Wunderground v.1.15,2013-02-25 17:14:00,
2013-02-25 12:19:00,40.5,25.1,30.15,NNW,347,2.0,2.0,54,0.00,,,0.00,Wunderground v.1.15,2013-02-25 17:19:00,
2013-02-25 12:24:00,40.7,24.9,30.15,NW,326,1.0,2.0,53,0.00,,,0.00,Wunderground v.1.15,2013-02-25 17:24:00,
2013-02-25 12:34:00,40.8,24.5,30.13,NNE,33,2.0,2.0,52,0.00,,,0.00,Wunderground v.1.15,2013-02-25 17:34:00,
2013-02-25 12:39:00,40.9,25.5,30.13,NNE,33,1.0,1.0,54,0.00,,,0.00,Wunderground v.1.15,2013-02-25 17:39:00,
2013-02-25 12:44:00,41.2,24.4,30.13,ENE,67,1.0,1.0,51,0.00,,,0.00,Wunderground v.1.15,2013-02-25 17:44:00,
2013-02-25 12:49:00,41.2,24.9,30.12,North,5,1.0,2.0,52,0.00,,,0.00,Wunderground v.1.15,2013-02-25 17:49:00,
2013-02-25 12:54:00,41.3,24.5,30.12,NNW,346,1.0,2.0,51,0.00,,,0.00,Wunderground v.1.15,2013-02-25 17:54:00,
2013-02-25 13:04:00,41.1,23.9,30.11,NNW,346,1.0,2.0,50,0.00,,,0.00,Wunderground v.1.15,2013-02-25 18:04:00,
2013-02-25 13:09:00,41.1,23.9,30.11,NNW,333,1.0,2.0,50,0.00,,,0.00,Wunderground v.1.15,2013-02-25 18:09:00,
2013-02-25 13:14:00,40.9,23.7,30.11,NNW,346,2.0,2.0,50,0.00,,,0.00,Wunderground v.1.15,2013-02-25 18:14:00,
2013-02-25 13:19:00,40.9,24.6,30.11,NNW,346,1.0,1.0,52,0.00,,,0.00,Wunderground v.1.15,2013-02-25 18:19:00,
2013-02-25 13:29:00,41.1,24.3,30.11,NNW,346,1.0,1.0,51,0.00,,,0.00,Wunderground v.1.15,2013-02-25 18:29:00,
2013-02-25 13:34:00,41.0,23.8,30.11,NNW,347,1.0,2.0,50,0.00,,,0.00,Wunderground v.1.15,2013-02-25 18:34:00,
2013-02-25 13:39:00,41.0,23.8,30.11,NNW,346,1.0,1.0,50,0.00,,,0.00,Wunderground v.1.15,2013-02-25 18:39:00,
2013-02-25 13:44:00,41.0,24.2,30.11,NNW,346,1.0,2.0,51,0.00,,,0.00,Wunderground v.1.15,2013-02-25 18:44:00,
2013-02-25 13:54:00,41.0,23.8,30.13,NNW,346,0.0,2.0,50,0.00,,,0.00,Wunderground v.1.15,2013-02-25 18:54:00,
2013-02-25 13:59:00,41.1,23.4,30.13,NNW,346,1.0,1.0,49,0.00,,,0.00,Wunderground v.1.15,2013-02-25 18:59:00,
2013-02-25 14:04:00,41.0,24.2,30.12,NNW,346,1.0,2.0,51,0.00,,,0.00,Wunderground v.1.15,2013-02-25 19:04:00,
2013-02-25 14:09:00,41.0,23.8,30.12,NNW,346,0.0,2.0,50,0.00,,,0.00,Wunderground v.1.15,2013-02-25 19:09:00,
2013-02-25 14:19:00,41.4,24.1,30.11,NNW,346,1.0,1.0,50,0.00,,,0.00,Wunderground v.1.15,2013-02-25 19:19:00,
2013-02-25 14:24:00,41.4,24.1,30.11,NNW,346,1.0,2.0,50,0.00,,,0.00,Wunderground v.1.15,2013-02-25 19:24:00,
2013-02-25 14:29:00,41.4,24.6,30.11,NNW,346,1.0,1.0,51,0.00,,,0.00,Wunderground v.1.15,2013-02-25 19:29:00,
2013-02-25 14:34:00,41.4,24.1,30.11,NNW,346,1.0,2.0,50,0.00,,,0.00,Wunderground v.1.15,2013-02-25 19:34:00,
2013-02-25 14:44:00,41.4,24.1,30.11,NNW,346,0.0,2.0,50,0.00,,,0.00,Wunderground v.1.15,2013-02-25 19:44:00,
2013-02-25 14:49:00,41.5,24.7,30.11,NNW,346,1.0,2.0,51,0.00,,,0.00,Wunderground v.1.15,2013-02-25 19:49:00,
2013-02-25 14:54:00,41.5,24.7,30.11,NNW,346,1.0,2.0,51,0.00,,,0.00,Wunderground v.1.15,2013-02-25 19:54:00,
2013-02-25 14:59:00,41.5,24.7,30.11,NNW,346,1.0,2.0,51,0.00,,,0.00,Wunderground v.1.15,2013-02-25 19:59:00,
2013-02-25 15:09:00,41.5,24.7,30.10,NNW,346,1.0,2.0,51,0.00,,,0.00,Wunderground v.1.15,2013-02-25 20:09:00,
2013-02-25 15:14:00,41.6,24.3,30.10,NNW,346,1.0,2.0,50,0.00,,,0.00,Wunderground v.1.15,2013-02-25 20:14:00,
2013-02-25 15:19:00,41.5,24.7,30.10,NNW,346,1.0,2.0,51,0.00,,,0.00,Wunderground v.1.15,2013-02-25 20:19:00,
2013-02-25 15:24:00,41.4,24.1,30.10,NNW,346,1.0,2.0,50,0.00,,,0.00,Wunderground v.1.15,2013-02-25 20:24:00,
2013-02-25 15:29:00,41.3,24.5,30.10,NNW,338,1.0,1.0,51,0.00,,,0.00,Wunderground v.1.15,2013-02-25 20:29:00,
2013-02-25 15:39:00,41.2,24.4,30.10,NNW,346,1.0,1.0,51,0.00,,,0.00,Wunderground v.1.15,2013-02-25 20:39:00,
2013-02-25 15:44:00,41.2,24.4,30.10,NNW,346,1.0,2.0,51,0.00,,,0.00,Wunderground v.1.15,2013-02-25 20:44:00,
2013-02-25 15:49:00,41.1,25.3,30.11,NNW,346,1.0,1.0,53,0.00,,,0.00,Wunderground v.1.15,2013-02-25 20:49:00,
2013-02-25 15:54:00,41.1,25.3,30.11,NNW,346,1.0,2.0,53,0.00,,,0.00,Wunderground v.1.15,2013-02-25 20:54:00,
2013-02-25 16:04:00,40.9,25.1,30.10,NNW,346,0.0,2.0,53,0.00,,,0.00,Wunderground v.1.15,2013-02-25 21:04:00,
2013-02-25 16:09:00,40.9,25.1,30.10,NNW,346,0.0,2.0,53,0.00,,,0.00,Wunderground v.1.15,2013-02-25 21:09:00,
2013-02-25 16:14:00,40.8,24.5,30.10,NNW,346,1.0,2.0,52,0.00,,,0.00,Wunderground v.1.15,2013-02-25 21:14:00,
2013-02-25 16:19:00,40.7,25.3,30.10,NNW,346,1.0,1.0,54,0.00,,,0.00,Wunderground v.1.15,2013-02-25 21:19:00,
2013-02-25 16:29:00,40.6,25.7,30.10,NNW,346,0.0,2.0,55,0.00,,,0.00,Wunderground v.1.15,2013-02-25 21:29:00,
2013-02-25 16:34:00,40.5,24.7,30.11,NNW,346,1.0,2.0,53,0.00,,,0.00,Wunderground v.1.15,2013-02-25 21:34:00,
2013-02-25 16:39:00,40.4,25.5,30.11,NNW,346,1.0,1.0,55,0.00,,,0.00,Wunderground v.1.15,2013-02-25 21:39:00,
2013-02-25 16:44:00,40.4,25.5,30.11,NNW,346,1.0,2.0,55,0.00,,,0.00,Wunderground v.1.15,2013-02-25 21:44:00,
2013-02-25 16:49:00,40.5,26.0,30.10,NNW,346,1.0,2.0,56,0.00,,,0.00,Wunderground v.1.15,2013-02-25 21:49:00,
2013-02-25 16:59:00,40.4,25.5,30.10,NNW,346,1.0,2.0,55,0.00,,,0.00,Wunderground v.1.15,2013-02-25 21:59:00,
2013-02-25 17:04:00,40.3,25.8,30.10,NNW,346,0.0,2.0,56,0.00,,,0.00,Wunderground v.1.15,2013-02-25 22:04:00,
2013-02-25 17:09:00,40.3,25.8,30.10,NNW,346,0.0,2.0,56,0.00,,,0.00,Wunderground v.1.15,2013-02-25 22:09:00,
2013-02-25 17:14:00,40.2,25.3,30.10,NNW,346,0.0,2.0,55,0.00,,,0.00,Wunderground v.1.15,2013-02-25 22:14:00,
2013-02-25 17:24:00,40.0,25.1,30.10,NNW,346,0.0,2.0,55,0.00,,,0.00,Wunderground v.1.15,2013-02-25 22:24:00,
2013-02-25 17:29:00,39.9,25.5,30.10,NNW,346,0.0,2.0,56,0.00,,,0.00,Wunderground v.1.15,2013-02-25 22:29:00,
2013-02-25 17:34:00,39.8,25.4,30.10,NNW,346,0.0,2.0,56,0.00,,,0.00,Wunderground v.1.15,2013-02-25 22:34:00,
2013-02-25 17:39:00,39.7,25.3,30.10,NNW,346,0.0,2.0,56,0.00,,,0.00,Wunderground v.1.15,2013-02-25 22:39:00,
2013-02-25 17:44:00,39.5,25.9,30.10,NNW,346,0.0,2.0,58,0.00,,,0.00,Wunderground v.1.15,2013-02-25 22:44:00,
2013-02-25 17:54:00,39.1,25.6,30.09,NNW,346,0.0,2.0,58,0.00,,,0.00,Wunderground v.1.15,2013-02-25 22:54:00,
2013-02-25 17:59:00,38.9,25.8,30.09,NNW,346,0.0,2.0,59,0.00,,,0.00,Wunderground v.1.15,2013-02-25 22:59:00,
2013-02-25 18:04:00,38.6,25.9,30.10,NNW,346,0.0,2.0,60,0.00,,,0.00,Wunderground v.1.15,2013-02-25 23:04:00,
2013-02-25 18:09:00,38.4,25.7,30.10,NNW,346,0.0,2.0,60,0.00,,,0.00,Wunderground v.1.15,2013-02-25 23:09:00,
2013-02-25 18:19:00,38.0,25.7,30.10,NNW,346,0.0,2.0,61,0.00,,,0.00,Wunderground v.1.15,2013-02-25 23:19:00,
2013-02-25 18:24:00,37.7,26.2,30.10,NNW,346,0.0,2.0,63,0.00,,,0.00,Wunderground v.1.15,2013-02-25 23:24:00,
2013-02-25 18:29:00,37.5,26.0,30.10,NNW,346,0.0,2.0,63,0.00,,,0.00,Wunderground v.1.15,2013-02-25 23:29:00,
2013-02-25 18:34:00,37.2,25.4,30.10,NNW,346,0.0,2.0,62,0.00,,,0.00,Wunderground v.1.15,2013-02-25 23:34:00,
2013-02-25 18:39:00,36.9,26.6,30.10,NNW,346,0.0,2.0,66,0.00,,,0.00,Wunderground v.1.15,2013-02-25 23:39:00,
2013-02-25 18:49:00,36.4,25.4,30.11,NNW,346,0.0,2.0,64,0.00,,,0.00,Wunderground v.1.15,2013-02-25 23:49:00,
2013-02-25 18:54:00,36.1,25.5,30.11,NNW,346,0.0,2.0,65,0.00,,,0.00,Wunderground v.1.15,2013-02-25 23:54:00,
2013-02-25 18:59:00,35.8,26.6,30.11,NNW,346,0.0,2.0,69,0.00,,,0.00,Wunderground v.1.15,2013-02-25 23:59:00,
2013-02-25 19:04:00,35.5,25.3,30.12,NNW,346,0.0,2.0,66,0.00,,,0.00,Wunderground v.1.15,2013-02-26 00:04:00,
2013-02-25 19:14:00,35.1,26.6,30.12,NNW,346,0.0,2.0,71,0.00,,,0.00,Wunderground v.1.15,2013-02-26 00:14:00,
2013-02-25 19:19:00,34.8,26.4,30.12,NNW,346,0.0,2.0,71,0.00,,,0.00,Wunderground v.1.15,2013-02-26 00:19:00,
2013-02-25 19:24:00,34.5,26.1,30.12,NNW,346,0.0,2.0,71,0.00,,,0.00,Wunderground v.1.15,2013-02-26 00:24:00,
2013-02-25 19:29:00,34.2,26.4,30.12,NNW,346,0.0,2.0,73,0.00,,,0.00,Wunderground v.1.15,2013-02-26 00:29:00,
2013-02-25 19:34:00,33.9,26.5,30.12,NNW,346,0.0,2.0,74,0.00,,,0.00,Wunderground v.1.15,2013-02-26 00:34:00,
2013-02-25 19:44:00,33.5,25.4,30.12,NNW,346,0.0,2.0,72,0.00,,,0.00,Wunderground v.1.15,2013-02-26 00:44:00,
2013-02-25 19:49:00,33.2,25.1,30.12,NNW,346,0.0,2.0,72,0.00,,,0.00,Wunderground v.1.15,2013-02-26 00:49:00,
2013-02-25 19:54:00,33.0,25.9,30.12,NNW,346,0.0,2.0,75,0.00,,,0.00,Wunderground v.1.15,2013-02-26 00:54:00,
2013-02-25 19:59:00,32.8,25.4,30.12,NNW,346,0.0,2.0,74,0.00,,,0.00,Wunderground v.1.15,2013-02-26 00:59:00,
2013-02-25 20:04:00,32.5,25.5,30.13,NNW,346,0.0,2.0,75,0.00,,,0.00,Wunderground v.1.15,2013-02-26 01:04:00,
2013-02-25 20:14:00,32.1,25.4,30.13,NNW,346,0.0,2.0,76,0.00,,,0.00,Wunderground v.1.15,2013-02-26 01:14:00,
2013-02-25 20:19:00,31.9,25.2,30.12,NNW,346,0.0,2.0,76,0.00,,,0.00,Wunderground v.1.15,2013-02-26 01:19:00,
2013-02-25 20:24:00,31.7,25.0,30.12,NNW,346,0.0,2.0,76,0.00,,,0.00,Wunderground v.1.15,2013-02-26 01:24:00,
2013-02-25 20:29:00,31.6,24.9,30.12,NNW,346,0.0,2.0,76,0.00,,,0.00,Wunderground v.1.15,2013-02-26 01:29:00,
2013-02-25 20:39:00,31.2,24.5,30.13,NNW,346,0.0,2.0,76,0.00,,,0.00,Wunderground v.1.15,2013-02-26 01:39:00,
2013-02-25 20:44:00,31.1,25.0,30.13,NNW,346,0.0,2.0,78,0.00,,,0.00,Wunderground v.1.15,2013-02-26 01:44:00,
2013-02-25 20:49:00,31.0,25.2,30.13,NNW,346,0.0,2.0,79,0.00,,,0.00,Wunderground v.1.15,2013-02-26 01:49:00,
2013-02-25 20:54:00,30.9,25.2,30.13,NNW,346,0.0,2.0,79,0.00,,,0.00,Wunderground v.1.15,2013-02-26 01:54:00,
2013-02-25 21:04:00,30.7,25.0,30.12,NNW,346,0.0,2.0,79,0.00,,,0.00,Wunderground v.1.15,2013-02-26 02:04:00,
2013-02-25 21:09:00,30.7,24.7,30.12,NNW,346,0.0,2.0,78,0.00,,,0.00,Wunderground v.1.15,2013-02-26 02:09:00,
2013-02-25 21:14:00,30.6,25.2,30.12,NNW,346,0.0,2.0,80,0.00,,,0.00,Wunderground v.1.15,2013-02-26 02:14:00,
2013-02-25 21:19:00,30.5,25.4,30.12,NNW,346,0.0,2.0,81,0.00,,,0.00,Wunderground v.1.15,2013-02-26 02:19:00,
2013-02-25 21:29:00,30.4,25.3,30.12,NNW,346,0.0,2.0,81,0.00,,,0.00,Wunderground v.1.15,2013-02-26 02:29:00,
2013-02-25 21:34:00,30.4,25.6,30.13,NNW,346,0.0,2.0,82,0.00,,,0.00,Wunderground v.1.15,2013-02-26 02:34:00,
2013-02-25 21:39:00,30.3,25.5,30.13,NNW,346,0.0,2.0,82,0.00,,,0.00,Wunderground v.1.15,2013-02-26 02:39:00,
2013-02-25 21:49:00,30.2,25.7,30.11,NNW,346,0.0,2.0,83,0.00,,,0.00,Wunderground v.1.15,2013-02-26 02:49:00,
2013-02-25 21:54:00,30.1,25.6,30.11,NNW,346,0.0,2.0,83,0.00,,,0.00,Wunderground v.1.15,2013-02-26 02:54:00,
2013-02-25 21:59:00,30.1,25.6,30.11,NNW,346,0.0,2.0,83,0.00,,,0.00,Wunderground v.1.15,2013-02-26 02:59:00,
2013-02-25 22:04:00,30.0,25.5,30.11,NNW,346,0.0,2.0,83,0.00,,,0.00,Wunderground v.1.15,2013-02-26 03:04:00,
2013-02-25 22:09:00,30.0,26.0,30.11,NNW,346,0.0,2.0,85,0.00,,,0.00,Wunderground v.1.15,2013-02-26 03:09:00,
2013-02-25 22:19:00,30.0,26.0,30.11,NNW,346,0.0,2.0,85,0.00,,,0.00,Wunderground v.1.15,2013-02-26 03:19:00,
2013-02-25 22:24:00,30.0,26.0,30.11,NNW,346,0.0,2.0,85,0.00,,,0.00,Wunderground v.1.15,2013-02-26 03:24:00,
2013-02-25 22:29:00,30.1,26.4,30.11,NNW,346,0.0,2.0,86,0.00,,,0.00,Wunderground v.1.15,2013-02-26 03:29:00,
2013-02-25 22:34:00,30.1,26.4,30.10,NNW,346,0.0,2.0,86,0.00,,,0.00,Wunderground v.1.15,2013-02-26 03:34:00,
2013-02-25 22:39:00,30.1,26.4,30.10,NNW,346,0.0,2.0,86,0.00,,,0.00,Wunderground v.1.15,2013-02-26 03:39:00,
2013-02-25 22:49:00,30.3,26.6,30.10,NNW,346,0.0,2.0,86,0.00,,,0.00,Wunderground v.1.15,2013-02-26 03:49:00,
2013-02-25 22:54:00,30.3,26.6,30.10,NNW,346,0.0,2.0,86,0.00,,,0.00,Wunderground v.1.15,2013-02-26 03:54:00,
2013-02-25 22:59:00,30.4,26.7,30.10,NNW,346,0.0,2.0,86,0.00,,,0.00,Wunderground v.1.15,2013-02-26 03:59:00,
2013-02-25 23:04:00,30.4,26.7,30.10,NNW,346,0.0,2.0,86,0.00,,,0.00,Wunderground v.1.15,2013-02-26 04:04:00,
2013-02-25 23:14:00,30.4,26.7,30.10,NNW,346,0.0,2.0,86,0.00,,,0.00,Wunderground v.1.15,2013-02-26 04:14:00,
2013-02-25 23:19:00,30.4,26.7,30.09,NNW,346,0.0,2.0,86,0.00,,,0.00,Wunderground v.1.15,2013-02-26 04:19:00,
2013-02-25 23:24:00,30.4,26.4,30.09,NNW,346,0.0,2.0,85,0.00,,,0.00,Wunderground v.1.15,2013-02-26 04:24:00,
2013-02-25 23:29:00,30.4,26.7,30.09,NNW,346,0.0,2.0,86,0.00,,,0.00,Wunderground v.1.15,2013-02-26 04:29:00,
2013-02-25 23:39:00,30.4,26.7,30.10,NNW,346,0.0,2.0,86,0.00,,,0.00,Wunderground v.1.15,2013-02-26 04:39:00,
2013-02-25 23:44:00,30.4,26.7,30.10,NNW,346,0.0,2.0,86,0.00,,,0.00,Wunderground v.1.15,2013-02-26 04:44:00,
2013-02-25 23:49:00,30.4,27.0,30.10,NNW,346,0.0,2.0,87,0.00,,,0.00,Wunderground v.1.15,2013-02-26 04:49:00,
2013-02-25 23:54:00,30.4,27.0,30.10,NNW,346,0.0,2.0,87,0.00,,,0.00,Wunderground v.1.15,2013-02-26 04:54:00,